WetterOnline ( https://www.wetteronline.de )

Wetter aktuell Nordhausen

Aktuelles Wetter: Harzgerode (405m)

6-stündlich | Neueste Meldungen
Ortszeit Temperatur Wetter
Do, 28.05. 20:00 14.9° C wolkenlos
Do, 28.05. 14:00 14.8° C fast wolkenlos
Do, 28.05. 8:00 9.1° C leicht bewölkt
Do, 28.05. 2:00 10.3° C leichter Regen
Mi, 27.05. 20:00 17.1° C bedeckt
Mi, 27.05. 14:00 18.2° C bewölkt
Mi, 27.05. 8:00 12.2° C wolkenlos
Mi, 27.05. 2:00 6.8° C bedeckt
Ortszeit Temperatur Wetter
Fr, 29.05. 0:00 10.0° C bewölkt
Do, 28.05. 23:50 10.0° C bewölkt
Do, 28.05. 23:40 10.1° C bewölkt
Do, 28.05. 23:30 10.1° C bewölkt
Do, 28.05. 23:20 10.1° C bewölkt
Do, 28.05. 23:10 9.9° C wolkig
Do, 28.05. 23:00 9.5° C leicht bewölkt
Do, 28.05. 22:30 9.7° C fast wolkenlos
Do, 28.05. 22:00 10.1° C leicht bewölkt
Do, 28.05. 21:30 11.2° C wolkenlos
Do, 28.05. 21:00 13.1° C wolkenlos
Ortszeit Relative Feuchte Sichtweite
Do, 28.05. 20:00 45% 55 km
Do, 28.05. 14:00 51% 30 km
Do, 28.05. 8:00 86% 35 km
Do, 28.05. 2:00 99% 6 km
Mi, 27.05. 20:00 49% 65 km
Mi, 27.05. 14:00 48% 50 km
Mi, 27.05. 8:00 77% 40 km
Mi, 27.05. 2:00 92% 35 km
Ortszeit Relative Feuchte Sichtweite
Fr, 29.05. 0:00 71% 50 km
Do, 28.05. 23:50 71% -
Do, 28.05. 23:40 69% -
Do, 28.05. 23:30 68% 55 km
Do, 28.05. 23:20 68% -
Do, 28.05. 23:10 68% -
Do, 28.05. 23:00 69% 60 km
Do, 28.05. 22:30 69% 55 km
Do, 28.05. 22:00 68% 60 km
Do, 28.05. 21:30 62% 60 km
Do, 28.05. 21:00 52% 50 km
Ortszeit Niederschlagsmenge Niederschlagsart
Do, 28.05. 20:00 0.0 l/m2 in 12 Std. -
Do, 28.05. 14:00 0.0 l/m2 in 6 Std. -
Do, 28.05. 8:00 5 l/m2 in 12 Std. Regen
Do, 28.05. 2:00 5 l/m2 in 6 Std. Regen
Mi, 27.05. 20:00 0.0 l/m2 in 12 Std. -
Mi, 27.05. 14:00 0.0 l/m2 in 6 Std. -
Mi, 27.05. 8:00 0.0 l/m2 in 12 Std. -
Mi, 27.05. 2:00 0.0 l/m2 in 6 Std. -
Ortszeit Niederschlagsmenge Niederschlagsart
Fr, 29.05. 0:00 0.0 l/m2 in 1 Std. -
Do, 28.05. 23:50 keine Meldung -
Do, 28.05. 23:40 keine Meldung -
Do, 28.05. 23:30 0.0 l/m2 in 1 Std. -
Do, 28.05. 23:20 keine Meldung -
Do, 28.05. 23:10 keine Meldung -
Do, 28.05. 23:00 0.0 l/m2 in 1 Std. -
Do, 28.05. 22:30 0.0 l/m2 in 1 Std. -
Do, 28.05. 22:00 0.0 l/m2 in 1 Std. -
Do, 28.05. 21:30 0.0 l/m2 in 1 Std. -
Do, 28.05. 21:00 0.0 l/m2 in 1 Std. -
Ortszeit Stärke Spitze Richtung
km/h Bft. km/h Grad Sektor
Do, 28.05. 20:00 15 3 41 360° N
Do, 28.05. 14:00 19 3 43 10° N
Do, 28.05. 8:00 13 3 28 340° N
Do, 28.05. 2:00 14 3 40 50° NO
Mi, 27.05. 20:00 11 2 22 320° NW
Mi, 27.05. 14:00 7 2 22 330° NW
Mi, 27.05. 8:00 6 1 13 230° SW
Mi, 27.05. 2:00 7 2 18 240° SW
Ortszeit Stärke Spitze Richtung
km/h Bft. km/h Grad Sektor
Fr, 29.05. 0:00 7 2 7 340° N
Do, 28.05. 23:50 7 2 - 340° N
Do, 28.05. 23:40 6 1 - 340° N
Do, 28.05. 23:30 6 1 7 330° NW
Do, 28.05. 23:20 6 1 - 330° NW
Do, 28.05. 23:10 6 1 - 330° NW
Do, 28.05. 23:00 7 2 11 340° N
Do, 28.05. 22:30 6 1 11 340° N
Do, 28.05. 22:00 7 2 14 340° N
Do, 28.05. 21:30 9 2 15 350° N
Do, 28.05. 21:00 11 2 29 360° N
Ortszeit Untergrenze Bedeckung Gattung
total tief tief mittel hoch
Do, 28.05. 20:00 - 0/8 0/8 - - -
Do, 28.05. 14:00 1260 m 1/8 1/8 - - -
Do, 28.05. 8:00 360 m 2/8 2/8 - - -
Do, 28.05. 2:00 120 m 8/8 8/8 - - -
Mi, 27.05. 20:00 1500 m 8/8 8/8 - - -
Mi, 27.05. 14:00 1800 m 7/8 6/8 - - -
Mi, 27.05. 8:00 10500 m 0/8 0/8 - - -
Mi, 27.05. 2:00 5100 m 8/8 8/8 - - -
Ortszeit Bedeckungsgrad in Achtel und Wolkenuntergrenze
Fr, 29.05. 0:00 2(1500m) 7(1500m)
Do, 28.05. 23:50 2(1500m) 7(1500m)
Do, 28.05. 23:40 3(1500m) 7(1500m)
Do, 28.05. 23:30 7(1500m)
Do, 28.05. 23:20 7(1500m)
Do, 28.05. 23:10 6(1500m) 6(9000m)
Do, 28.05. 23:00 1(1800m) 5(9000m)
Do, 28.05. 22:30 1(1800m)
Do, 28.05. 22:00 4(1500m)
Do, 28.05. 21:30 keine Wolken
Do, 28.05. 21:00 keine Wolken
Ortszeit Luftdruck NN (hPa) Tendenz (hPa in 3 Std.)
Do, 28.05. 20:00 1029 - 0,5
Do, 28.05. 14:00 1030 - 0,7
Do, 28.05. 8:00 1033 + 0,6
Do, 28.05. 2:00 1031 + 0,3
Mi, 27.05. 20:00 1030 - 0,9
Mi, 27.05. 14:00 1032 - 1,0
Mi, 27.05. 8:00 1034 0,0
Mi, 27.05. 2:00 1036 - 0,2
Ortszeit Luftdruck NN (hPa) Tendenz (hPa in 3 Std.)
Fr, 29.05. 0:00 1030 + 0,6
Do, 28.05. 23:50 1030 keine Meldung
Do, 28.05. 23:40 1030 keine Meldung
Do, 28.05. 23:30 1030 + 0,5
Do, 28.05. 23:20 1030 keine Meldung
Do, 28.05. 23:10 1030 keine Meldung
Do, 28.05. 23:00 1030 + 0,3
Do, 28.05. 22:30 1030 + 0,3
Do, 28.05. 22:00 1030 + 0,2
Do, 28.05. 21:30 1030 0,0
Do, 28.05. 21:00 1029 - 0,4
Ortszeit Schneehöhe (cm)
Do, 28.05. 20:00 -
Do, 28.05. 14:00 -
Do, 28.05. 8:00 -
Do, 28.05. 2:00 -
Mi, 27.05. 20:00 -
Mi, 27.05. 14:00 -
Mi, 27.05. 8:00 -
Mi, 27.05. 2:00 -
Ortszeit Schneehöhe (cm)
Fr, 29.05. 0:00 -
Do, 28.05. 23:50 -
Do, 28.05. 23:40 -
Do, 28.05. 23:30 -
Do, 28.05. 23:20 -
Do, 28.05. 23:10 -
Do, 28.05. 23:00 -
Do, 28.05. 22:30 -
Do, 28.05. 22:00 -
Do, 28.05. 21:30 -
Do, 28.05. 21:00 -
Link zu dieser Seite / Seite empfehlen

Das Wetter in ...